Back to Top

Language: 

My Weather Underground Personal Weather Station Historical Data with Graphs...

Delerius Weather Station Historical Data
Daily Summary for March 8, 2017 Units:  Metric    English   Both
« Previous Day
Next Day »
Daily Weekly Monthly Yearly Custom
  High: Low: Average:
Temperature: 12.8 °C 6.7 °C 9.3 °C
Dew Point: 9 °C 3.3 °C 6.2 °C
Humidity: 95 % 53 % 82 %
Wind Speed: 30.6 km/h 0 km/h 15.4 km/h
Wind Gust: 48.3 km/h - -
Wind:- - WSW
Pressure: 1012.8 hPa 1002.9 hPa -
Precipitation: 1.27 mm    
Historical Graphs
 
 
Tabular Data for March 8, 2017
Time Temperature Dew Point Pressure Wind Wind Speed Wind Gust Humidity Rainfall Rate (Hourly) solar Conditions
00:05 7.3 °C 5.7 °C 1008 hPa South 17.7 km/h 45.1 km/h 90 % 0 mm 0 W/m2
00:15 7.3 °C 5.7 °C 1007.7 hPa South 20.9 km/h 48.3 km/h 90 % 0 mm 0 W/m2
00:20 7.3 °C 5.7 °C 1007.3 hPa SW 22.5 km/h 22.5 km/h 90 % 0 mm 0 W/m2
00:25 7.3 °C 5.9 °C 1007.3 hPa SSW 24.1 km/h 32.2 km/h 91 % 0 mm 0 W/m2
00:30 7.2 °C 5.8 °C 1007 hPa SSW 22.5 km/h 22.5 km/h 91 % 0 mm 0 W/m2
00:40 7.2 °C 5.8 °C 1007 hPa SSW 19.3 km/h 19.3 km/h 91 % 0 mm 0 W/m2
00:45 7.2 °C 6 °C 1007 hPa SSW 19.3 km/h 19.3 km/h 92 % 0 mm 0 W/m2
00:50 7.2 °C 5.8 °C 1006.7 hPa SW 17.7 km/h 17.7 km/h 91 % 0 mm 0 W/m2
00:55 7.2 °C 6 °C 1006.3 hPa South 19.3 km/h 22.5 km/h 92 % 0 mm 0 W/m2
01:00 7.3 °C 6.1 °C 1006.3 hPa SW 20.9 km/h 20.9 km/h 92 % 0 mm 0 W/m2
01:10 7.3 °C 6.1 °C 1006 hPa SSW 22.5 km/h 35.4 km/h 92 % 0 mm 0 W/m2
01:15 7.2 °C 6 °C 1005.6 hPa South 20.9 km/h 35.4 km/h 92 % 1.02 mm 0 W/m2
01:20 7.2 °C 6 °C 1005.3 hPa SSW 22.5 km/h 35.4 km/h 92 % 1.02 mm 0 W/m2
01:30 7.1 °C 6.1 °C 1005.3 hPa SW 20.9 km/h 20.9 km/h 93 % 1.27 mm 0 W/m2
01:35 7.1 °C 6.1 °C 1005.3 hPa SSW 20.9 km/h 35.4 km/h 93 % 1.27 mm 0 W/m2
01:45 7.1 °C 6.1 °C 1005 hPa SW 20.9 km/h 35.4 km/h 93 % 0 mm 0 W/m2
01:50 7.1 °C 6.2 °C 1005 hPa SSW 22.5 km/h 35.4 km/h 94 % 0 mm 0 W/m2
01:55 7.2 °C 6.3 °C 1005 hPa SSW 22.5 km/h 35.4 km/h 94 % 0 mm 0 W/m2
02:00 7.2 °C 6.3 °C 1005 hPa SW 22.5 km/h 22.5 km/h 94 % 0 mm 0 W/m2
02:05 7.3 °C 6.4 °C 1005 hPa SSW 20.9 km/h 35.4 km/h 94 % 0 mm 0 W/m2
02:10 7.3 °C 6.4 °C 1005 hPa SW 20.9 km/h 20.9 km/h 94 % 0 mm 0 W/m2
02:20 7.4 °C 6.5 °C 1005 hPa SW 19.3 km/h 35.4 km/h 94 % 0 mm 0 W/m2
02:25 7.4 °C 6.6 °C 1005 hPa SSW 19.3 km/h 35.4 km/h 94 % 0 mm 0 W/m2
02:30 7.5 °C 6.6 °C 1005 hPa SW 20.9 km/h 20.9 km/h 94 % 0 mm 0 W/m2
02:35 7.6 °C 6.7 °C 1005 hPa SW 19.3 km/h 35.4 km/h 94 % 0 mm 0 W/m2
02:40 7.6 °C 6.7 °C 1004.6 hPa SW 17.7 km/h 17.7 km/h 94 % 0 mm 0 W/m2
02:50 7.8 °C 6.9 °C 1004.6 hPa SW 17.7 km/h 35.4 km/h 94 % 0 mm 0 W/m2
03:00 7.9 °C 7.1 °C 1004.3 hPa WSW 16.1 km/h 35.4 km/h 95 % 0 mm 0 W/m2
03:05 8 °C 7.2 °C 1004.3 hPa SW 14.5 km/h 35.4 km/h 95 % 0 mm 0 W/m2
03:10 8.1 °C 7.3 °C 1004.3 hPa SSW 12.9 km/h 35.4 km/h 95 % 0 mm 0 W/m2
03:15 8.2 °C 7.3 °C 1004.3 hPa SW 14.5 km/h 35.4 km/h 94 % 0 mm 0 W/m2
03:25 8.4 °C 7.6 °C 1003.9 hPa SW 16.1 km/h 35.4 km/h 94 % 0 mm 0 W/m2
03:30 8.6 °C 7.7 °C 1003.6 hPa SW 14.5 km/h 35.4 km/h 94 % 0 mm 0 W/m2
03:35 8.6 °C 7.7 °C 1003.6 hPa SW 14.5 km/h 35.4 km/h 94 % 0 mm 0 W/m2
03:40 8.6 °C 7.7 °C 1003.6 hPa SW 12.9 km/h 12.9 km/h 94 % 0 mm 0 W/m2
03:45 8.8 °C 7.9 °C 1003.3 hPa SSW 12.9 km/h 35.4 km/h 94 % 0 mm 0 W/m2
03:50 8.8 °C 7.9 °C 1003.3 hPa SW 12.9 km/h 35.4 km/h 94 % 0 mm 0 W/m2
04:00 9 °C 8.1 °C 1003.3 hPa SW 12.9 km/h 12.9 km/h 94 % 0 mm 0 W/m2
04:05 9.1 °C 8.2 °C 1003.3 hPa SW 12.9 km/h 35.4 km/h 94 % 0 mm 0 W/m2
04:10 9.3 °C 8.4 °C 1003.3 hPa SW 12.9 km/h 35.4 km/h 94 % 0 mm 0 W/m2
04:20 9.7 °C 8.7 °C 1002.9 hPa WSW 12.9 km/h 12.9 km/h 94 % 0 mm 0 W/m2
04:25 9.8 °C 8.9 °C 1003.3 hPa West 14.5 km/h 14.5 km/h 94 % 0 mm 0 W/m2
04:35 10 °C 8.9 °C 1003.3 hPa WSW 14.5 km/h 35.4 km/h 93 % 0 mm 0 W/m2
04:40 10.1 °C 9 °C 1003.3 hPa WSW 12.9 km/h 35.4 km/h 93 % 0 mm 0 W/m2
04:45 10.1 °C 8.9 °C 1003.3 hPa West 14.5 km/h 35.4 km/h 92 % 0 mm 0 W/m2
04:50 10.2 °C 8.9 °C 1003.3 hPa WSW 14.5 km/h 14.5 km/h 92 % 0 mm 0 W/m2
04:55 10.1 °C 8.9 °C 1003.3 hPa WNW 12.9 km/h 35.4 km/h 92 % 0 mm 0 W/m2
05:00 10.1 °C 8.8 °C 1003.3 hPa West 14.5 km/h 14.5 km/h 92 % 0 mm 0 W/m2
05:05 10.1 °C 8.8 °C 1003.6 hPa West 16.1 km/h 16.1 km/h 92 % 0 mm 0 W/m2
05:10 10 °C 8.8 °C 1003.6 hPa West 16.1 km/h 16.1 km/h 92 % 0 mm 0 W/m2
05:15 10 °C 8.8 °C 1003.6 hPa WSW 17.7 km/h 22.5 km/h 92 % 0 mm 0 W/m2
05:20 9.9 °C 8.7 °C 1003.6 hPa West 20.9 km/h 35.4 km/h 92 % 0 mm 0 W/m2
05:25 10 °C 8.8 °C 1003.6 hPa West 22.5 km/h 35.4 km/h 92 % 0 mm 0 W/m2
05:35 9.9 °C 8.7 °C 1003.6 hPa WNW 24.1 km/h 35.4 km/h 92 % 0 mm 0 W/m2
05:45 9.9 °C 8.7 °C 1003.9 hPa WNW 19.3 km/h 35.4 km/h 92 % 0 mm 0 W/m2
05:50 9.8 °C 8.6 °C 1003.9 hPa WNW 17.7 km/h 35.4 km/h 92 % 0 mm 0 W/m2
05:55 9.8 °C 8.6 °C 1003.9 hPa West 16.1 km/h 35.4 km/h 92 % 0 mm 0 W/m2
06:00 9.8 °C 8.6 °C 1003.9 hPa West 12.9 km/h 35.4 km/h 92 % 0 mm 0 W/m2
06:05 9.7 °C 8.3 °C 1003.9 hPa WNW 12.9 km/h 35.4 km/h 91 % 0 mm 0 W/m2
06:15 9.6 °C 8.2 °C 1004.6 hPa NNW 11.3 km/h 35.4 km/h 91 % 0 mm 0 W/m2
06:20 9.6 °C 8.2 °C 1004.6 hPa NW 9.7 km/h 35.4 km/h 91 % 0 mm 0 W/m2
06:25 9.5 °C 8.1 °C 1004.6 hPa NW 11.3 km/h 35.4 km/h 91 % 0 mm 0 W/m2
06:30 9.4 °C 8.1 °C 1005 hPa West 17.7 km/h 35.4 km/h 91 % 0 mm 0 W/m2
06:35 9.5 °C 7.9 °C 1005 hPa WNW 20.9 km/h 35.4 km/h 90 % 0 mm 0 W/m2
06:45 9.6 °C 7.7 °C 1005 hPa WNW 24.1 km/h 29 km/h 88 % 0 mm 5 W/m2
06:55 9.6 °C 7.6 °C 1005 hPa West 24.1 km/h 35.4 km/h 87 % 0 mm 9 W/m2
07:00 9.6 °C 7.5 °C 1005 hPa West 22.5 km/h 22.5 km/h 87 % 0 mm 9 W/m2
07:05 9.5 °C 7.4 °C 1005 hPa WNW 22.5 km/h 35.4 km/h 87 % 0 mm 11 W/m2
07:10 9.4 °C 7.3 °C 1005.3 hPa NW 20.9 km/h 35.4 km/h 87 % 0 mm 21 W/m2
07:20 9.2 °C 7.2 °C 1005.3 hPa WNW 25.7 km/h 35.4 km/h 87 % 0 mm 32 W/m2
07:25 9.2 °C 7.1 °C 1005 hPa West 27.4 km/h 35.4 km/h 87 % 0 mm 28 W/m2
07:30 9.1 °C 7.1 °C 1005 hPa WNW 27.4 km/h 27.4 km/h 87 % 0 mm 32 W/m2
07:35 9 °C 6.9 °C 1005.3 hPa WNW 25.7 km/h 35.4 km/h 87 % 0 mm 30 W/m2
07:40 8.9 °C 6.9 °C 1005.3 hPa West 27.4 km/h 27.4 km/h 87 % 0 mm 33 W/m2
07:45 8.9 °C 6.8 °C 1005.3 hPa WNW 29 km/h 32.2 km/h 87 % 0 mm 58 W/m2
07:55 8.8 °C 6.8 °C 1006 hPa WNW 30.6 km/h 41.8 km/h 87 % 0 mm 62 W/m2
08:00 8.8 °C 6.7 °C 1006 hPa West 29 km/h 29 km/h 87 % 0 mm 62 W/m2
08:05 8.8 °C 6.7 °C 1006.3 hPa West 27.4 km/h 35.4 km/h 87 % 0 mm 65 W/m2
08:15 8.8 °C 6.6 °C 1006.3 hPa WNW 24.1 km/h 35.4 km/h 86 % 0 mm 63 W/m2
08:20 8.8 °C 6.6 °C 1006.7 hPa WNW 24.1 km/h 24.1 km/h 86 % 0 mm 62 W/m2
08:30 8.8 °C 6.6 °C 1006.7 hPa West 19.3 km/h 35.4 km/h 86 % 0 mm 79 W/m2
08:35 8.7 °C 6.5 °C 1007 hPa WNW 20.9 km/h 40.2 km/h 86 % 0 mm 86 W/m2
08:40 8.7 °C 6.5 °C 1006.7 hPa West 24.1 km/h 35.4 km/h 86 % 0 mm 102 W/m2
08:45 8.7 °C 6.7 °C 1007 hPa West 22.5 km/h 35.4 km/h 87 % 0 mm 118 W/m2
08:50 8.7 °C 6.6 °C 1006.7 hPa West 20.9 km/h 20.9 km/h 87 % 0 mm 93 W/m2
08:55 8.6 °C 6.6 °C 1006.7 hPa WNW 20.9 km/h 35.4 km/h 87 % 0 mm 83 W/m2
09:00 8.6 °C 6.6 °C 1006.7 hPa WNW 20.9 km/h 20.9 km/h 87 % 0 mm 137 W/m2
09:05 8.6 °C 6.6 °C 1006.7 hPa WNW 20.9 km/h 24.1 km/h 87 % 0 mm 148 W/m2
09:10 8.7 °C 6.6 °C 1006.7 hPa NW 20.9 km/h 35.4 km/h 87 % 0 mm 125 W/m2
09:15 8.7 °C 6.5 °C 1006.7 hPa WNW 20.9 km/h 35.4 km/h 86 % 0 mm 127 W/m2
09:20 8.7 °C 6.7 °C 1006.7 hPa West 20.9 km/h 20.9 km/h 87 % 0 mm 148 W/m2
09:30 8.8 °C 6.6 °C 1007 hPa West 20.9 km/h 35.4 km/h 86 % 0 mm 113 W/m2
09:40 8.8 °C 6.6 °C 1007.3 hPa WNW 22.5 km/h 22.5 km/h 86 % 0 mm 121 W/m2
09:45 8.9 °C 6.7 °C 1007.3 hPa NW 20.9 km/h 35.4 km/h 86 % 0 mm 135 W/m2
09:50 8.9 °C 6.7 °C 1007.3 hPa WNW 22.5 km/h 35.4 km/h 86 % 0 mm 113 W/m2
09:55 9 °C 6.6 °C 1007.3 hPa West 22.5 km/h 35.4 km/h 85 % 0 mm 130 W/m2
10:00 9.1 °C 6.7 °C 1007.3 hPa WSW 17.7 km/h 17.7 km/h 85 % 0 mm 144 W/m2
10:10 9.2 °C 6.6 °C 1007.7 hPa WNW 19.3 km/h 19.3 km/h 84 % 0 mm 162 W/m2
10:15 9.3 °C 6.7 °C 1008 hPa West 17.7 km/h 35.4 km/h 84 % 0 mm 199 W/m2
10:20 9.3 °C 6.8 °C 1008 hPa WSW 16.1 km/h 35.4 km/h 84 % 0 mm 183 W/m2
10:25 9.4 °C 6.9 °C 1008 hPa WNW 14.5 km/h 35.4 km/h 84 % 0 mm 155 W/m2
10:30 9.5 °C 6.8 °C 1008.4 hPa West 14.5 km/h 35.4 km/h 83 % 0 mm 162 W/m2
10:40 9.6 °C 6.9 °C 1008.4 hPa WNW 14.5 km/h 14.5 km/h 83 % 0 mm 142 W/m2
10:45 9.7 °C 6.9 °C 1008.4 hPa West 14.5 km/h 35.4 km/h 83 % 0 mm 188 W/m2
10:50 9.7 °C 7 °C 1008.4 hPa WNW 14.5 km/h 35.4 km/h 83 % 0 mm 183 W/m2
10:55 9.8 °C 6.8 °C 1008 hPa West 16.1 km/h 35.4 km/h 82 % 0 mm 141 W/m2
11:00 9.8 °C 6.7 °C 1008.4 hPa WNW 19.3 km/h 35.4 km/h 81 % 0 mm 144 W/m2
11:10 9.8 °C 6.7 °C 1008.4 hPa WNW 19.3 km/h 35.4 km/h 81 % 0 mm 151 W/m2
11:15 9.9 °C 6.8 °C 1008.4 hPa WNW 16.1 km/h 35.4 km/h 81 % 0 mm 158 W/m2
11:25 9.9 °C 6.7 °C 1008.7 hPa West 16.1 km/h 35.4 km/h 80 % 0 mm 200 W/m2
11:30 10.1 °C 6.8 °C 1008.7 hPa West 14.5 km/h 35.4 km/h 80 % 0 mm 185 W/m2
11:35 10.1 °C 6.6 °C 1008.7 hPa WNW 16.1 km/h 35.4 km/h 79 % 0 mm 185 W/m2
11:40 10.1 °C 6.6 °C 1009 hPa West 19.3 km/h 35.4 km/h 79 % 0 mm 241 W/m2
11:50 10.2 °C 6.6 °C 1009.4 hPa WNW 24.1 km/h 24.1 km/h 78 % 0 mm 200 W/m2
11:55 10.2 °C 6.4 °C 1009.4 hPa West 24.1 km/h 35.4 km/h 77 % 0 mm 218 W/m2
12:00 10.2 °C 6.4 °C 1009.4 hPa WNW 24.1 km/h 35.4 km/h 77 % 0 mm 264 W/m2
12:05 10.3 °C 6.4 °C 1009.7 hPa WSW 24.1 km/h 35.4 km/h 77 % 0 mm 253 W/m2
12:10 10.4 °C 6.6 °C 1009.7 hPa West 20.9 km/h 20.9 km/h 77 % 0 mm 295 W/m2
12:20 10.5 °C 6.1 °C 1010 hPa WNW 19.3 km/h 19.3 km/h 74 % 0 mm 193 W/m2
12:25 10.4 °C 5.6 °C 1010 hPa West 22.5 km/h 24.1 km/h 72 % 0 mm 207 W/m2
12:30 10.4 °C 5.8 °C 1010 hPa West 22.5 km/h 35.4 km/h 73 % 0 mm 148 W/m2
12:35 10.4 °C 5.8 °C 1010.4 hPa West 20.9 km/h 35.4 km/h 73 % 0 mm 195 W/m2
12:45 10.4 °C 5.8 °C 1010.4 hPa WNW 16.1 km/h 35.4 km/h 73 % 0 mm 199 W/m2
12:55 10.6 °C 6.2 °C 1010.4 hPa West 16.1 km/h 16.1 km/h 74 % 0 mm 339 W/m2
13:00 10.8 °C 6.1 °C 1010.4 hPa WNW 17.7 km/h 17.7 km/h 73 % 0 mm 229 W/m2
13:05 10.9 °C 6.1 °C 1010.4 hPa WNW 19.3 km/h 20.9 km/h 72 % 0 mm 503 W/m2
13:10 11.2 °C 6.2 °C 1010.4 hPa SW 24.1 km/h 24.1 km/h 71 % 0 mm 573 W/m2
13:15 11.6 °C 6.1 °C 1010.4 hPa WNW 25.7 km/h 25.7 km/h 69 % 0 mm 640 W/m2
13:20 11.6 °C 6.1 °C 1010.4 hPa West 25.7 km/h 35.4 km/h 69 % 0 mm 172 W/m2
13:30 11.4 °C 6.1 °C 1010.4 hPa West 22.5 km/h 35.4 km/h 70 % 0 mm 313 W/m2
13:35 11.5 °C 6.4 °C 1010.4 hPa WNW 22.5 km/h 35.4 km/h 71 % 0 mm 675 W/m2
13:40 12 °C 6.5 °C 1010.4 hPa West 22.5 km/h 35.4 km/h 69 % 0 mm 701 W/m2
13:45 12.3 °C 6.4 °C 1010 hPa WNW 22.5 km/h 35.4 km/h 67 % 0 mm 647 W/m2
13:50 12.6 °C 6.4 °C 1010 hPa WSW 24.1 km/h 35.4 km/h 66 % 0 mm 612 W/m2
14:00 12.8 °C 6.2 °C 1010 hPa West 24.1 km/h 35.4 km/h 64 % 0 mm 568 W/m2
14:05 12.8 °C 5.7 °C 1010 hPa West 20.9 km/h 35.4 km/h 62 % 0 mm 483 W/m2
14:10 12.5 °C 5.4 °C 1010 hPa West 22.5 km/h 35.4 km/h 62 % 0 mm 91 W/m2
14:20 11.7 °C 4.7 °C 1010 hPa WNW 22.5 km/h 35.4 km/h 62 % 0 mm 90 W/m2
14:25 11.6 °C 4.5 °C 1010 hPa WNW 20.9 km/h 35.4 km/h 62 % 0 mm 197 W/m2
14:35 12.2 °C 5.2 °C 1010 hPa West 19.3 km/h 35.4 km/h 62 % 0 mm 469 W/m2
14:40 12.6 °C 4.8 °C 1010 hPa West 16.1 km/h 16.1 km/h 59 % 0 mm 371 W/m2
14:45 12.7 °C 3.6 °C 1010 hPa West 17.7 km/h 17.7 km/h 54 % 0 mm 329 W/m2
14:50 12.7 °C 3.3 °C 1010 hPa West 20.9 km/h 35.4 km/h 53 % 0 mm 353 W/m2
14:55 12.6 °C 3.8 °C 1010 hPa West 19.3 km/h 35.4 km/h 55 % 0 mm 258 W/m2
15:00 12.6 °C 4.3 °C 1010 hPa SW 17.7 km/h 17.7 km/h 57 % 0 mm 380 W/m2
15:10 12.7 °C 4.3 °C 1010 hPa West 16.1 km/h 35.4 km/h 57 % 0 mm 276 W/m2
15:15 12.7 °C 4.6 °C 1010 hPa WSW 16.1 km/h 35.4 km/h 58 % 0 mm 346 W/m2
15:20 12.8 °C 4.9 °C 1010 hPa WSW 14.5 km/h 14.5 km/h 59 % 0 mm 364 W/m2
15:25 12.8 °C 5.2 °C 1010 hPa WSW 14.5 km/h 30.6 km/h 60 % 0 mm 248 W/m2
15:30 12.3 °C 5 °C 1010 hPa West 19.3 km/h 35.4 km/h 61 % 0 mm 355 W/m2
15:40 12.2 °C 5.2 °C 1010 hPa WNW 17.7 km/h 17.7 km/h 62 % 0 mm 323 W/m2
15:45 12.3 °C 4.9 °C 1010.4 hPa West 16.1 km/h 35.4 km/h 61 % 0 mm 237 W/m2
15:55 12.2 °C 4.9 °C 1010.4 hPa WSW 19.3 km/h 35.4 km/h 61 % 0 mm 227 W/m2
16:00 12 °C 4.9 °C 1010.4 hPa WNW 19.3 km/h 19.3 km/h 62 % 0 mm 146 W/m2
16:05 11.8 °C 5 °C 1010.4 hPa WSW 16.1 km/h 35.4 km/h 63 % 0 mm 91 W/m2
16:15 11.5 °C 5.2 °C 1010.4 hPa WSW 16.1 km/h 35.4 km/h 65 % 0 mm 174 W/m2
16:20 11.4 °C 5.1 °C 1010.7 hPa West 14.5 km/h 14.5 km/h 65 % 0 mm 220 W/m2
16:25 11.4 °C 5.3 °C 1010.7 hPa WSW 16.1 km/h 16.1 km/h 66 % 0 mm 209 W/m2
16:30 11.4 °C 5.5 °C 1010.7 hPa SW 14.5 km/h 14.5 km/h 67 % 0 mm 192 W/m2
16:35 11.4 °C 5.7 °C 1010.7 hPa West 11.3 km/h 35.4 km/h 68 % 0 mm 171 W/m2
16:40 11.3 °C 5.8 °C 1010.4 hPa WNW 11.3 km/h 35.4 km/h 69 % 0 mm 171 W/m2
16:50 11.1 °C 5.8 °C 1010.7 hPa WSW 14.5 km/h 14.5 km/h 70 % 0 mm 72 W/m2
16:55 11 °C 5.5 °C 1010.7 hPa SW 16.1 km/h 29 km/h 69 % 0 mm 46 W/m2
17:00 10.9 °C 5.4 °C 1010.7 hPa West 16.1 km/h 16.1 km/h 69 % 0 mm 47 W/m2
17:05 10.8 °C 5.6 °C 1010.7 hPa WSW 17.7 km/h 24.1 km/h 70 % 0 mm 51 W/m2
17:10 10.7 °C 5.4 °C 1011.1 hPa West 17.7 km/h 35.4 km/h 70 % 0 mm 37 W/m2
17:20 10.5 °C 5.4 °C 1011.1 hPa West 11.3 km/h 35.4 km/h 71 % 0 mm 21 W/m2
17:30 10.3 °C 5.5 °C 1011.1 hPa West 12.9 km/h 35.4 km/h 72 % 0 mm 19 W/m2
17:35 10.2 °C 5.4 °C 1011.1 hPa WSW 12.9 km/h 35.4 km/h 72 % 0 mm 18 W/m2
17:40 10.1 °C 5.5 °C 1011.1 hPa WSW 9.7 km/h 9.7 km/h 73 % 0 mm 14 W/m2
17:45 10.1 °C 5.4 °C 1011.4 hPa WSW 8 km/h 35.4 km/h 73 % 0 mm 11 W/m2
17:55 9.8 °C 5.4 °C 1011.4 hPa WSW 11.3 km/h 35.4 km/h 74 % 0 mm 5 W/m2
18:00 9.8 °C 5.4 °C 1011.4 hPa WSW 11.3 km/h 11.3 km/h 74 % 0 mm 0 W/m2
18:05 9.7 °C 5.3 °C 1011.4 hPa WSW 9.7 km/h 35.4 km/h 74 % 0 mm 0 W/m2
18:10 9.6 °C 5.4 °C 1011.4 hPa WSW 8 km/h 35.4 km/h 75 % 0 mm 0 W/m2
18:15 9.5 °C 5.5 °C 1011.4 hPa SW 8 km/h 35.4 km/h 76 % 0 mm 0 W/m2
18:20 9.4 °C 5.4 °C 1011.7 hPa West 6.4 km/h 6.4 km/h 76 % 0 mm 0 W/m2
18:30 9.2 °C 5.4 °C 1011.7 hPa WSW 1.6 km/h 1.6 km/h 77 % 0 mm 0 W/m2
18:35 9.1 °C 5.5 °C 1011.7 hPa WSW 1.6 km/h 35.4 km/h 78 % 0 mm 0 W/m2
18:40 8.9 °C 5.3 °C 1012.1 hPa WSW 1.6 km/h 35.4 km/h 78 % 0 mm 0 W/m2
18:45 8.8 °C 5.3 °C 1011.7 hPa SSE 3.2 km/h 35.4 km/h 79 % 0 mm 0 W/m2
18:55 8.5 °C 5.2 °C 1011.7 hPa SSE 1.6 km/h 35.4 km/h 80 % 0 mm 0 W/m2
19:00 8.3 °C 5.1 °C 1011.7 hPa SSE 1.6 km/h 35.4 km/h 80 % 0 mm 0 W/m2
19:10 8.1 °C 5.2 °C 1012.1 hPa SSE 1.6 km/h 1.6 km/h 82 % 0 mm 0 W/m2
19:15 8 °C 5.1 °C 1012.1 hPa South 1.6 km/h 35.4 km/h 82 % 0 mm 0 W/m2
19:20 7.9 °C 5.1 °C 1012.1 hPa South 1.6 km/h 1.6 km/h 82 % 0 mm 0 W/m2
19:25 8 °C 5.3 °C 1012.1 hPa South 1.6 km/h 35.4 km/h 83 % 0 mm 0 W/m2
19:35 8 °C 5.1 °C 1012.1 hPa WSW 3.2 km/h 35.4 km/h 82 % 0 mm 0 W/m2
19:40 8.1 °C 5.4 °C 1012.1 hPa SW 4.8 km/h 35.4 km/h 83 % 0 mm 0 W/m2
19:45 8.2 °C 5.3 °C 1012.1 hPa WNW 6.4 km/h 35.4 km/h 82 % 0 mm 0 W/m2
19:50 8.2 °C 5.3 °C 1012.1 hPa WNW 4.8 km/h 35.4 km/h 82 % 0 mm 0 W/m2
19:55 8.1 °C 5.2 °C 1012.4 hPa WNW 4.8 km/h 35.4 km/h 82 % 0 mm 0 W/m2
20:00 8.3 °C 5.4 °C 1012.4 hPa West 6.4 km/h 6.4 km/h 82 % 0 mm 0 W/m2
20:10 8.3 °C 5.4 °C 1012.1 hPa WNW 6.4 km/h 35.4 km/h 82 % 0 mm 0 W/m2
20:15 8.3 °C 5.4 °C 1012.1 hPa NW 4.8 km/h 35.4 km/h 82 % 0 mm 0 W/m2
20:30 8.1 °C 5.4 °C 1012.4 hPa ESE 3.2 km/h 35.4 km/h 83 % 0 mm 0 W/m2
20:35 8 °C 5.1 °C 1012.1 hPa ESE 3.2 km/h 35.4 km/h 82 % 0 mm 0 W/m2
20:45 7.8 °C 5.1 °C 1012.4 hPa ESE 3.2 km/h 35.4 km/h 83 % 0 mm 0 W/m2
20:50 7.7 °C 5 °C 1012.4 hPa ESE 1.6 km/h 1.6 km/h 83 % 0 mm 0 W/m2
20:55 7.6 °C 4.9 °C 1012.4 hPa Calm   35.4 km/h 83 % 0 mm 0 W/m2
21:00 7.5 °C 4.8 °C 1012.1 hPa Calm   35.4 km/h 83 % 0 mm 0 W/m2
21:05 7.5 °C 4.9 °C 1012.1 hPa SW 1.6 km/h 35.4 km/h 84 % 0 mm 0 W/m2
21:15 7.8 °C 5.3 °C 1012.4 hPa SW 6.4 km/h 35.4 km/h 84 % 0 mm 0 W/m2
21:20 7.9 °C 5.4 °C 1012.4 hPa WSW 6.4 km/h 35.4 km/h 84 % 0 mm 0 W/m2
21:25 8 °C 5.3 °C 1012.4 hPa WSW 8 km/h 35.4 km/h 83 % 0 mm 0 W/m2
21:30 8.1 °C 5.3 °C 1012.1 hPa SW 8 km/h 8 km/h 83 % 0 mm 0 W/m2
21:35 8.2 °C 5.4 °C 1012.1 hPa West 8 km/h 35.4 km/h 83 % 0 mm 0 W/m2
21:40 8.1 °C 5.2 °C 1012.1 hPa West 4.8 km/h 4.8 km/h 82 % 0 mm 0 W/m2
21:50 8.1 °C 5.2 °C 1012.4 hPa WSW 4.8 km/h 4.8 km/h 82 % 0 mm 0 W/m2
22:00 7.8 °C 4.9 °C 1012.4 hPa WSW 1.6 km/h 1.6 km/h 82 % 0 mm 0 W/m2
22:05 7.6 °C 4.7 °C 1012.4 hPa WSW 1.6 km/h 35.4 km/h 82 % 0 mm 0 W/m2
22:10 7.4 °C 4.5 °C 1012.4 hPa Calm   35.4 km/h 82 % 0 mm 0 W/m2
22:15 7.2 °C 4.7 °C 1012.4 hPa Calm   35.4 km/h 84 % 0 mm 0 W/m2
22:25 7 °C 4.5 °C 1012.4 hPa ESE 1.6 km/h 35.4 km/h 84 % 0 mm 0 W/m2
22:30 6.9 °C 4.6 °C 1012.8 hPa ESE 3.2 km/h 3.2 km/h 85 % 0 mm 0 W/m2
22:35 6.8 °C 4.5 °C 1012.8 hPa ESE 3.2 km/h 35.4 km/h 85 % 0 mm 0 W/m2
22:40 6.7 °C 4.4 °C 1012.8 hPa ESE 1.6 km/h 1.6 km/h 85 % 0 mm 0 W/m2
22:45 6.7 °C 4.5 °C 1012.8 hPa Calm   35.4 km/h 86 % 0 mm 0 W/m2
22:55 6.7 °C 4.5 °C 1012.8 hPa SSW 1.6 km/h 35.4 km/h 86 % 0 mm 0 W/m2
23:00 6.8 °C 4.6 °C 1012.8 hPa SW 3.2 km/h 35.4 km/h 86 % 0 mm 0 W/m2
23:05 7.2 °C 5 °C 1012.8 hPa WSW 8 km/h 35.4 km/h 86 % 0 mm 0 W/m2
23:10 7.4 °C 5.1 °C 1012.4 hPa WSW 12.9 km/h 12.9 km/h 85 % 0 mm 0 W/m2
23:15 7.6 °C 5.1 °C 1012.8 hPa WSW 12.9 km/h 35.4 km/h 84 % 0 mm 0 W/m2
23:25 8.1 °C 5.2 °C 1012.8 hPa WSW 16.1 km/h 35.4 km/h 82 % 0 mm 0 W/m2
23:40 8.5 °C 5.2 °C 1012.8 hPa WSW 16.1 km/h 35.4 km/h 80 % 0 mm 0 W/m2
23:45 8.6 °C 5.2 °C 1012.8 hPa WSW 17.7 km/h 35.4 km/h 79 % 0 mm 0 W/m2
23:50 8.6 °C 5.2 °C 1012.8 hPa WSW 16.1 km/h 16.1 km/h 79 % 0 mm 0 W/m2
23:55 8.4 °C 5 °C 1012.8 hPa WSW 12.9 km/h 35.4 km/h 79 % 0 mm 0 W/m2
Delerius-Weather
Compliments of Weather Underground - 2 mb

Data updates at regular intervals.